Time;durP1;ratioP1;P1;durP2;ratioP2;P2;SDS_P1;SDS_P2;PMS_P1;PMS_P2;Temp;Humidity;BMP_temperature;BMP_pressure;BME280_temperature;BME280_humidity;BME280_pressure;Samples;Min_cycle;Max_cycle;Signal;HPM_P1;HPM_P2
2022/04/08 16:01:27;;;;;;;;;;;;;;;17.45;100.00;96901.56;5758049;23;19972;-71
2022/04/08 16:03:54;;;;;;;;;;;;;;;17.37;100.00;96889.03;4808831;29;19975;-71
2022/04/08 16:06:22;;;;;;;;;;;;;;;17.36;100.00;96893.13;4799910;29;20230;-71
2022/04/08 16:08:50;;;;;;;;;;;;;;;17.44;100.00;96902.03;4812094;29;19955;-71
2022/04/08 16:11:20;;;;;;;;;;;;;;;17.36;99.40;96887.47;4806854;29;20203;-72
2022/04/08 16:13:48;;;;;;;;;;;;;;;17.36;100.00;96893.13;4809736;29;19955;-72
2022/04/08 16:16:15;;;;;;;;;;;;;;;17.33;99.75;96890.47;4810384;29;19955;-72
2022/04/08 16:18:50;;;;;;;;;;;;;;;17.32;99.81;96889.69;4810325;29;19954;-72
2022/04/08 16:21:18;;;;;;;;;;;;;;;17.29;99.78;96868.03;4808184;29;20375;-72
2022/04/08 16:23:46;;;;;;;;;;;;;;;17.24;98.59;96885.63;4809971;29;19953;-71
2022/04/08 16:26:13;;;;;;;;;;;;;;;17.22;98.83;96837.31;4809325;29;19951;-71
2022/04/08 16:28:40;;;;;;;;;;;;;;;17.15;98.43;96867.94;4809254;29;20246;-72
2022/04/08 16:31:08;;;;;;;;;;;;;;;17.03;99.70;96859.19;4809209;29;19960;-72
2022/04/08 16:33:35;;;;;;;;;;;;;;;17.08;98.04;96863.41;4810041;29;19955;-72
2022/04/08 16:36:03;;;;;;;;;;;;;;;17.02;98.62;96865.28;4809912;29;19957;-72
2022/04/08 16:38:30;;;;;;;;;;;;;;;17.07;98.29;96885.22;4809003;29;19954;-72
2022/04/08 16:40:58;;;;;;;;;;;;;;;17.07;98.53;96870.31;4809248;29;19956;-72
2022/04/08 16:43:25;;;;;;;;;;;;;;;17.06;98.31;96880.06;4807970;29;19964;-72
2022/04/08 16:45:53;;;;;;;;;;;;;;;16.98;98.19;96909.88;4811299;29;19973;-71
2022/04/08 16:48:20;;;;;;;;;;;;;;;16.90;98.14;96898.13;4810370;29;19953;-71
2022/04/08 16:50:51;;;;;;;;;;;;;;;16.84;98.61;96899.25;4809236;29;20251;-72
2022/04/08 16:53:18;;;;;;;;;;;;;;;16.82;98.40;96899.69;4810153;29;19955;-71
2022/04/08 16:55:45;;;;;;;;;;;;;;;16.85;98.51;96903.63;4809516;29;19962;-71
2022/04/08 16:58:13;;;;;;;;;;;;;;;16.74;99.38;96900.50;4809121;29;20253;-71
2022/04/08 17:00:40;;;;;;;;;;;;;;;16.64;99.58;96882.00;4809413;29;19959;-71
2022/04/08 17:03:08;;;;;;;;;;;;;;;16.59;100.00;96869.31;4809374;29;19986;-72
2022/04/08 17:05:35;;;;;;;;;;;;;;;16.59;100.00;96877.00;4807735;29;19970;-72
2022/04/08 17:08:02;;;;;;;;;;;;;;;16.47;100.00;96856.13;4808217;29;20022;-72
2022/04/08 17:10:32;;;;;;;;;;;;;;;16.43;100.00;96838.59;4809263;29;20026;-72
2022/04/08 17:13:01;;;;;;;;;;;;;;;16.44;100.00;96857.06;4803758;29;19955;-72
2022/04/08 17:15:28;;;;;;;;;;;;;;;16.29;100.00;96853.31;4808842;29;19954;-72
2022/04/08 17:17:56;;;;;;;;;;;;;;;16.21;100.00;96844.38;4808950;29;19963;-72
2022/04/08 17:20:23;;;;;;;;;;;;;;;16.16;100.00;96818.88;4809411;29;19958;-71
2022/04/08 17:22:52;;;;;;;;;;;;;;;16.13;100.00;96817.78;4806480;29;19957;-72
2022/04/08 17:25:19;;;;;;;;;;;;;;;15.99;100.00;96807.09;4808575;29;19977;-72
2022/04/08 17:27:46;;;;;;;;;;;;;;;15.98;100.00;96791.47;4809010;29;20264;-72
2022/04/08 17:30:14;;;;;;;;;;;;;;;15.92;100.00;96798.97;4808033;29;19956;-71
2022/04/08 17:32:43;;;;;;;;;;;;;;;15.89;100.00;96774.56;4800086;29;19952;-71
2022/04/08 17:35:11;;;;;;;;;;;;;;;15.81;100.00;96775.31;4807262;29;19954;-71
2022/04/08 17:37:38;;;;;;;;;;;;;;;15.67;100.00;96774.66;4809198;29;19954;-71
2022/04/08 17:40:05;;;;;;;;;;;;;;;15.74;100.00;96770.78;4809387;29;19956;-71
2022/04/08 17:42:35;;;;;;;;;;;;;;;15.67;100.00;96779.56;4808769;29;19965;-70
2022/04/08 17:45:03;;;;;;;;;;;;;;;15.67;100.00;96782.38;4807468;29;19973;-71
2022/04/08 17:47:30;;;;;;;;;;;;;;;15.68;100.00;96755.72;4807046;29;19966;-71
2022/04/08 17:49:58;;;;;;;;;;;;;;;15.68;100.00;96764.19;4807073;29;19950;-70
2022/04/08 17:52:25;;;;;;;;;;;;;;;15.51;100.00;96748.84;4808027;29;19955;-70
2022/04/08 17:54:52;;;;;;;;;;;;;;;15.50;100.00;96764.94;4808020;29;19956;-71
2022/04/08 17:57:21;;;;;;;;;;;;;;;15.43;100.00;96734.25;4807198;29;19961;-71
2022/04/08 17:59:48;;;;;;;;;;;;;;;15.35;100.00;96763.19;4807912;29;19960;-71
2022/04/08 18:02:17;;;;;;;;;;;;;;;15.33;100.00;96721.38;4808676;29;19973;-71
2022/04/08 18:04:46;;;;;;;;;;;;;;;15.28;100.00;96715.63;4807619;29;20380;-71
2022/04/08 18:07:13;;;;;;;;;;;;;;;15.26;100.00;96730.16;4791696;29;19968;-71
2022/04/08 18:09:41;;;;;;;;;;;;;;;15.26;100.00;96729.38;4804459;29;19959;-71
2022/04/08 18:12:10;;;;;;;;;;;;;;;15.24;100.00;96752.38;4808370;29;19962;-71
2022/04/08 18:14:37;;;;;;;;;;;;;;;15.31;100.00;96720.31;4807087;29;19959;-71
2022/04/08 18:17:07;;;;;;;;;;;;;;;15.32;100.00;96711.41;4807109;29;20370;-71
2022/04/08 18:19:34;;;;;;;;;;;;;;;15.23;100.00;96714.22;4808861;29;19950;-71
2022/04/08 18:22:02;;;;;;;;;;;;;;;15.18;100.00;96725.28;4807389;29;19965;-71
2022/04/08 18:24:29;;;;;;;;;;;;;;;15.14;100.00;96712.16;4808995;29;19960;-71
2022/04/08 18:26:56;;;;;;;;;;;;;;;15.12;100.00;96699.78;4807159;29;20034;-70
2022/04/08 18:29:24;;;;;;;;;;;;;;;15.10;100.00;96699.47;4806095;29;19955;-70
2022/04/08 18:31:55;;;;;;;;;;;;;;;15.05;100.00;96719.78;4808009;29;19962;-71
2022/04/08 18:34:23;;;;;;;;;;;;;;;15.08;100.00;96714.03;4808352;29;19953;-70
2022/04/08 18:36:50;;;;;;;;;;;;;;;15.02;100.00;96675.69;4808908;29;20421;-70
2022/04/08 18:39:18;;;;;;;;;;;;;;;15.06;100.00;96708.06;4796416;29;19958;-70
2022/04/08 18:41:45;;;;;;;;;;;;;;;15.04;100.00;96690.84;4806603;29;19954;-70
2022/04/08 18:44:13;;;;;;;;;;;;;;;15.04;100.00;96687.25;4806271;29;19964;-70
2022/04/08 18:46:40;;;;;;;;;;;;;;;15.04;100.00;96696.47;4806024;29;19968;-70
2022/04/08 18:49:07;;;;;;;;;;;;;;;15.03;100.00;96697.75;4802866;29;20577;-70
2022/04/08 18:51:34;;;;;;;;;;;;;;;14.96;100.00;96706.50;4807580;29;19955;-70
2022/04/08 18:54:03;;;;;;;;;;;;;;;14.97;100.00;96712.88;4807768;29;19955;-70
2022/04/08 18:56:31;;;;;;;;;;;;;;;14.98;100.00;96697.56;4803608;29;19959;-70
2022/04/08 18:58:58;;;;;;;;;;;;;;;14.96;100.00;96739.47;4806445;29;19952;-71
2022/04/08 19:01:26;;;;;;;;;;;;;;;14.92;100.00;96736.00;4805991;29;19961;-71
2022/04/08 19:03:53;;;;;;;;;;;;;;;15.00;100.00;96728.84;4803658;29;19958;-71
2022/04/08 19:06:20;;;;;;;;;;;;;;;14.90;100.00;96713.19;4804986;29;20059;-71
2022/04/08 19:08:48;;;;;;;;;;;;;;;14.89;100.00;96746.16;4806415;29;20253;-71
2022/04/08 19:11:15;;;;;;;;;;;;;;;14.87;100.00;96737.41;4806906;29;19963;-71
2022/04/08 19:13:42;;;;;;;;;;;;;;;14.90;100.00;96756.19;4806857;29;20258;-70
2022/04/08 19:16:09;;;;;;;;;;;;;;;14.97;100.00;96738.22;4806320;29;19955;-71
2022/04/08 19:18:37;;;;;;;;;;;;;;;14.89;100.00;96726.47;4806378;29;19962;-71
2022/04/08 19:21:04;;;;;;;;;;;;;;;14.87;100.00;96765.53;4806356;29;19960;-71
2022/04/08 19:23:31;;;;;;;;;;;;;;;14.78;100.00;96745.81;4806597;29;19975;-71
2022/04/08 19:25:58;;;;;;;;;;;;;;;14.79;100.00;96767.09;4806575;29;19984;-71
2022/04/08 19:28:27;;;;;;;;;;;;;;;14.74;100.00;96762.06;4807276;29;19955;-71
